createdAt,value
2019-05-15T00:04:01.226Z,9.43
2019-05-15T00:09:04.462Z,9.27
2019-05-15T00:14:08.512Z,9.17
2019-05-15T00:19:09.617Z,9.24
2019-05-15T00:24:13.114Z,9.21
2019-05-15T00:29:16.386Z,9.18
2019-05-15T00:34:18.425Z,9.10
2019-05-15T00:39:20.016Z,8.96
2019-05-15T00:44:21.599Z,8.74
2019-05-15T00:49:26.164Z,8.75
2019-05-15T00:54:28.965Z,8.74
2019-05-15T00:59:30.577Z,8.69
2019-05-15T01:04:32.144Z,8.64
2019-05-15T01:09:33.697Z,8.51
2019-05-15T01:14:35.246Z,8.36
2019-05-15T01:19:38.119Z,8.33
2019-05-15T01:24:39.861Z,8.26
2019-05-15T01:29:45.202Z,8.19
2019-05-15T01:34:46.076Z,8.46
2019-05-15T01:39:48.556Z,8.40
2019-05-15T01:44:50.293Z,8.11
2019-05-15T01:49:51.899Z,7.90
2019-05-15T01:54:53.453Z,7.88
2019-05-15T01:59:58.298Z,7.79
2019-05-15T02:04:59.240Z,7.65
2019-05-15T02:10:02.527Z,7.56
2019-05-15T02:15:04.772Z,7.56
2019-05-15T02:20:08.310Z,7.57
2019-05-15T02:25:10.407Z,7.66
2019-05-15T02:30:22.638Z,7.77
2019-05-15T02:35:18.394Z,7.90
2019-05-15T02:40:19.401Z,7.82
2019-05-15T02:45:21.081Z,7.76
2019-05-15T02:50:22.759Z,7.66
2019-05-15T02:55:24.320Z,7.43
2019-05-15T03:00:37.835Z,7.69
2019-05-15T03:05:29.695Z,7.64
2019-05-15T03:10:31.445Z,7.53
2019-05-15T03:15:33.249Z,7.43
2019-05-15T03:20:34.807Z,7.39
2019-05-15T03:25:39.858Z,7.22
2019-05-15T03:31:11.419Z,7.15
2019-05-15T03:35:44.714Z,7.35
2019-05-15T03:40:49.612Z,7.36
2019-05-15T03:45:50.263Z,7.29
2019-05-15T03:50:51.952Z,7.27
2019-05-15T03:55:53.516Z,7.14
2019-05-15T04:00:55.239Z,7.19
2019-05-15T04:06:00.228Z,7.07
2019-05-15T04:11:00.504Z,6.77
2019-05-15T04:16:02.174Z,6.58
2019-05-15T04:21:04.129Z,6.60
2019-05-15T04:26:09.327Z,6.70
2019-05-15T04:31:10.178Z,6.77
2019-05-15T04:36:11.854Z,7.01
2019-05-15T04:41:13.434Z,6.87
2019-05-15T04:46:15.136Z,6.88
2019-05-15T04:51:19.042Z,6.86
2019-05-15T04:56:20.481Z,6.87
2019-05-15T05:01:22.217Z,6.90
2019-05-15T05:06:23.865Z,6.89
2019-05-15T05:11:25.551Z,6.89
2019-05-15T05:16:29.541Z,6.88
2019-05-15T05:21:30.676Z,6.96
2019-05-15T05:26:32.334Z,7.04
2019-05-15T05:31:33.954Z,6.98
2019-05-15T05:36:35.542Z,7.14
2019-05-15T05:41:39.191Z,7.27
2019-05-15T05:46:40.691Z,7.23
2019-05-15T05:51:42.257Z,7.23
2019-05-15T05:56:43.819Z,7.44
2019-05-15T06:01:45.379Z,7.58
2019-05-15T06:06:50.091Z,7.68
2019-05-15T06:11:50.603Z,7.84
2019-05-15T06:16:52.171Z,7.91
2019-05-15T06:21:57.602Z,8.02
2019-05-15T06:26:58.668Z,8.07
2019-05-15T06:32:00.524Z,8.09
2019-05-15T06:37:02.337Z,8.19
2019-05-15T06:42:03.939Z,8.29
2019-05-15T06:47:08.070Z,8.46
2019-05-15T06:52:09.023Z,8.62
2019-05-15T06:57:10.578Z,8.67
2019-05-15T07:02:12.288Z,8.64
2019-05-15T07:07:13.943Z,8.74
2019-05-15T07:12:15.650Z,8.88
2019-05-15T07:17:17.735Z,8.97
2019-05-15T07:22:19.533Z,9.03
2019-05-15T07:27:21.089Z,9.04
2019-05-15T07:32:22.650Z,9.07
2019-05-15T07:37:24.215Z,9.10
2019-05-15T07:42:25.907Z,9.14
2019-05-15T07:47:29.293Z,9.18
2019-05-15T07:52:31.049Z,9.28
2019-05-15T07:57:32.704Z,9.37
2019-05-15T08:02:34.276Z,9.40
2019-05-15T08:07:38.618Z,9.36
2019-05-15T08:12:39.686Z,9.37
2019-05-15T08:18:02.644Z,9.44
2019-05-15T08:22:45.966Z,9.45
2019-05-15T08:27:48.482Z,9.47
2019-05-15T08:32:51.723Z,9.64
2019-05-15T08:37:53.693Z,9.76
2019-05-15T08:42:59.504Z,9.88
2019-05-15T08:47:58.899Z,10.05
2019-05-15T08:53:00.485Z,10.27
2019-05-15T08:58:07.276Z,10.44
2019-05-15T09:03:05.782Z,10.48
2019-05-15T09:08:09.321Z,10.51
2019-05-15T09:13:10.903Z,10.51
2019-05-15T09:18:16.258Z,10.55
2019-05-15T09:23:18.840Z,10.60
2019-05-15T09:28:19.654Z,10.57
2019-05-15T09:33:21.442Z,10.56
2019-05-15T09:38:22.987Z,10.63
2019-05-15T09:43:24.551Z,10.59
2019-05-15T09:48:28.602Z,10.55
2019-05-15T09:53:29.786Z,10.54
2019-05-15T09:58:31.332Z,10.57
2019-05-15T10:03:33.049Z,10.66
2019-05-15T10:08:34.720Z,10.79
2019-05-15T10:13:38.431Z,10.90
2019-05-15T10:18:40.006Z,11.01
2019-05-15T10:23:41.647Z,11.08
2019-05-15T10:28:43.243Z,11.18
2019-05-15T10:33:44.829Z,11.26
2019-05-15T10:38:48.852Z,11.28
2019-05-15T10:43:56.349Z,11.31
2019-05-15T10:48:53.529Z,11.41
2019-05-15T10:53:55.085Z,11.47
2019-05-15T10:58:58.916Z,11.55
2019-05-15T11:04:00.242Z,11.61
2019-05-15T11:09:01.968Z,11.63
2019-05-15T11:14:04.045Z,11.64
2019-05-15T11:19:07.877Z,11.60
2019-05-15T11:24:09.051Z,11.55
2019-05-15T11:29:10.609Z,11.56
2019-05-15T11:34:12.169Z,11.55
2019-05-15T11:39:13.755Z,11.52
2019-05-15T11:44:15.387Z,11.47
2019-05-15T11:49:18.256Z,11.48
2019-05-15T11:54:20.056Z,11.49
2019-05-15T11:59:21.585Z,11.51
2019-05-15T12:04:30.458Z,11.48
2019-05-15T12:09:28.277Z,11.56
2019-05-15T12:14:30.052Z,11.68
2019-05-15T12:19:32.320Z,11.77
2019-05-15T12:24:36.788Z,11.87
2019-05-15T12:29:39.858Z,11.93
2019-05-15T12:34:40.931Z,12.04
2019-05-15T12:39:42.474Z,12.10
2019-05-15T12:59:54.521Z,12.39
2019-05-15T13:04:56.180Z,12.33
2019-05-15T13:09:58.009Z,12.20
2019-05-15T13:14:59.621Z,12.06
2019-05-15T13:20:01.419Z,11.98
2019-05-15T13:25:03.708Z,11.96
2019-05-15T13:30:08.799Z,11.96
2019-05-15T13:35:10.329Z,11.97
2019-05-15T13:40:12.067Z,11.97
2019-05-15T13:45:13.915Z,11.95
2019-05-15T13:50:15.687Z,11.99
2019-05-15T13:55:24.637Z,12.00
2019-05-15T14:00:21.244Z,12.04
2019-05-15T14:05:22.796Z,12.07
2019-05-15T14:10:24.343Z,12.10
2019-05-15T14:15:26.048Z,12.11
2019-05-15T14:20:27.594Z,12.12
2019-05-15T14:25:29.235Z,12.02
2019-05-15T14:30:30.872Z,12.00
2019-05-15T14:35:32.520Z,11.96
2019-05-15T14:40:34.182Z,11.98
2019-05-15T14:45:35.842Z,11.97
2019-05-15T14:50:38.393Z,11.95
2019-05-15T14:55:44.041Z,11.94
2019-05-15T15:00:43.969Z,11.95
2019-05-15T15:05:45.698Z,11.93
2019-05-15T15:10:47.273Z,11.92
2019-05-15T15:15:48.816Z,11.87
2019-05-15T15:20:50.653Z,11.82
2019-05-15T15:25:52.267Z,11.78
2019-05-15T15:30:53.808Z,11.73
2019-05-15T15:35:55.505Z,11.68
2019-05-15T15:41:00.061Z,11.65
2019-05-15T15:46:00.776Z,11.65
2019-05-15T15:51:02.342Z,11.59
2019-05-15T15:56:06.899Z,11.53
2019-05-15T16:01:09.062Z,11.49
2019-05-15T16:06:13.148Z,11.39
2019-05-15T16:11:14.990Z,11.36
2019-05-15T16:16:17.959Z,11.40
2019-05-15T16:21:19.687Z,11.46
2019-05-15T16:26:21.239Z,11.50
2019-05-15T16:31:22.784Z,11.54
2019-05-15T16:36:24.679Z,11.51
2019-05-15T16:41:28.823Z,11.37
2019-05-15T16:46:30.038Z,11.26
2019-05-15T16:51:32.450Z,11.24
2019-05-15T16:56:36.425Z,11.23
2019-05-15T17:01:39.339Z,11.26
2019-05-15T17:06:41.293Z,11.24
2019-05-15T17:11:43.057Z,11.21
2019-05-15T17:16:44.648Z,11.21
2019-05-15T17:21:48.184Z,11.28
2019-05-15T17:26:51.907Z,11.30
2019-05-15T17:31:54.055Z,11.30
2019-05-15T17:36:58.169Z,11.31
2019-05-15T17:41:59.519Z,11.26
2019-05-15T17:47:01.312Z,11.24
2019-05-15T17:52:03.212Z,11.25
2019-05-15T17:57:04.839Z,11.26
2019-05-15T18:02:08.535Z,11.26
2019-05-15T18:07:10.062Z,11.22
2019-05-15T18:12:12.725Z,11.20
2019-05-15T18:17:14.582Z,11.18
2019-05-15T18:22:18.085Z,11.15
2019-05-15T18:27:19.627Z,11.12
2019-05-15T18:32:21.363Z,11.10
2019-05-15T18:37:22.955Z,11.11
2019-05-15T18:42:24.945Z,11.10
2019-05-15T18:47:28.031Z,11.09
2019-05-15T18:52:29.698Z,11.08
2019-05-15T18:57:31.293Z,11.07
2019-05-15T19:02:32.976Z,11.08
2019-05-15T19:07:34.569Z,11.05
2019-05-15T19:12:37.890Z,11.07
2019-05-15T19:17:39.583Z,11.05
2019-05-15T19:22:48.484Z,11.04
2019-05-15T19:27:50.029Z,11.03
2019-05-15T19:32:51.591Z,10.98
2019-05-15T19:37:53.342Z,10.97
2019-05-15T19:42:54.962Z,10.92
2019-05-15T19:47:58.648Z,10.92
2019-05-15T19:53:00.072Z,10.93
2019-05-15T19:58:01.802Z,10.94
2019-05-15T20:03:03.585Z,10.92
2019-05-15T20:08:05.250Z,10.90
2019-05-15T20:13:06.800Z,10.91
2019-05-15T20:18:08.371Z,10.90
2019-05-15T20:23:10.051Z,10.85
2019-05-15T20:28:12.698Z,10.80
2019-05-15T20:33:14.292Z,10.78
2019-05-15T20:38:16.030Z,10.79
2019-05-15T20:43:18.553Z,10.79
2019-05-15T20:48:20.255Z,10.78
2019-05-15T20:53:21.993Z,10.79
2019-05-15T20:58:23.610Z,10.77
2019-05-15T21:03:25.215Z,10.74
2019-05-15T21:08:28.764Z,10.72
2019-05-15T21:13:30.334Z,10.68
2019-05-15T21:18:31.918Z,10.65
2019-05-15T21:23:33.512Z,10.66
2019-05-15T21:28:35.075Z,10.66
2019-05-15T21:33:36.690Z,10.64
2019-05-15T21:38:38.838Z,10.64
2019-05-15T21:43:40.638Z,10.63
2019-05-15T21:48:42.178Z,10.64
2019-05-15T21:53:43.748Z,10.62
2019-05-15T21:58:45.283Z,10.62
2019-05-15T22:03:48.168Z,10.54
2019-05-15T22:08:49.993Z,10.51
2019-05-15T22:13:51.617Z,10.53
2019-05-15T22:18:53.162Z,10.57
2019-05-15T22:23:55.021Z,10.63
2019-05-15T22:28:58.441Z,10.59
2019-05-15T22:34:00.457Z,10.58
2019-05-15T22:39:02.353Z,10.57
2019-05-15T22:44:04.037Z,10.55
2019-05-15T22:49:05.872Z,10.52
2019-05-15T22:54:08.618Z,10.54
2019-05-15T22:59:10.404Z,10.56
2019-05-15T23:04:12.275Z,10.57
2019-05-15T23:09:13.827Z,10.52
2019-05-15T23:14:15.383Z,10.50
2019-05-15T23:19:18.701Z,10.56
2019-05-15T23:24:20.631Z,10.65
2019-05-15T23:29:22.188Z,10.63
2019-05-15T23:34:23.753Z,10.63
2019-05-15T23:39:25.422Z,10.65
2019-05-15T23:44:27.677Z,10.66
2019-05-15T23:49:29.618Z,10.68
2019-05-15T23:54:31.145Z,10.74
2019-05-15T23:59:32.818Z,10.70
